createdAt,value
2023-09-17T00:00:26.035Z,10.00
2023-09-17T00:02:54.643Z,9.90
2023-09-17T00:05:23.230Z,9.85
2023-09-17T00:07:51.856Z,9.70
2023-09-17T00:10:20.422Z,9.85
2023-09-17T00:12:50.408Z,10.32
2023-09-17T00:15:19.113Z,10.20
2023-09-17T00:17:47.924Z,10.18
2023-09-17T00:20:16.588Z,9.23
2023-09-17T00:22:45.156Z,9.18
2023-09-17T00:25:14.035Z,10.45
2023-09-17T00:27:42.630Z,10.10
2023-09-17T00:30:13.503Z,10.73
2023-09-17T00:32:42.062Z,10.73
2023-09-17T00:35:13.059Z,11.13
2023-09-17T00:37:42.456Z,11.43
2023-09-17T00:40:12.515Z,12.38
2023-09-17T00:42:41.860Z,12.35
2023-09-17T00:45:11.988Z,12.57
2023-09-17T00:47:42.065Z,11.98
2023-09-17T00:50:12.547Z,12.15
2023-09-17T00:52:41.481Z,11.75
2023-09-17T00:55:11.293Z,12.25
2023-09-17T00:57:40.522Z,12.63
2023-09-17T01:00:10.999Z,11.88
2023-09-17T01:02:40.680Z,12.05
2023-09-17T01:05:11.225Z,12.73
2023-09-17T01:07:40.518Z,12.80
2023-09-17T01:10:10.238Z,15.48
2023-09-17T01:12:39.717Z,16.58
2023-09-17T01:15:10.052Z,17.92
2023-09-17T01:17:39.362Z,21.08
2023-09-17T01:20:26.190Z,21.40
2023-09-17T01:22:57.763Z,22.00
2023-09-17T01:25:33.490Z,23.42
2023-09-17T01:28:04.623Z,23.42
2023-09-17T01:30:33.149Z,22.98
2023-09-17T01:33:02.679Z,23.27
2023-09-17T01:35:32.602Z,24.83
2023-09-17T01:38:03.932Z,22.58
2023-09-17T01:40:33.003Z,22.30
2023-09-17T01:43:03.804Z,22.45
2023-09-17T01:45:33.388Z,22.30
2023-09-17T01:48:02.301Z,21.80
2023-09-17T01:50:31.294Z,23.13
2023-09-17T01:53:00.373Z,21.88
2023-09-17T01:55:30.709Z,21.30
2023-09-17T01:57:59.290Z,20.75
2023-09-17T02:00:29.719Z,21.35
2023-09-17T02:02:58.387Z,20.60
2023-09-17T02:05:27.290Z,20.65
2023-09-17T02:07:55.850Z,21.02
2023-09-17T02:10:24.414Z,19.27
2023-09-17T02:12:52.956Z,18.45
2023-09-17T02:15:21.693Z,18.33
2023-09-17T02:17:54.367Z,19.02
2023-09-17T02:20:23.251Z,16.48
2023-09-17T02:22:52.063Z,15.93
2023-09-17T02:25:20.797Z,15.80
2023-09-17T02:27:49.401Z,16.48
2023-09-17T02:30:17.911Z,15.77
2023-09-17T02:32:46.475Z,14.80
2023-09-17T02:35:16.535Z,15.15
2023-09-17T02:37:45.477Z,14.68
2023-09-17T02:40:14.116Z,15.10
2023-09-17T02:42:42.716Z,14.93
2023-09-17T02:45:12.344Z,14.98
2023-09-17T02:47:42.760Z,15.05
2023-09-17T02:50:12.132Z,15.27
2023-09-17T02:52:42.383Z,14.27
2023-09-17T02:55:11.971Z,14.30
2023-09-17T02:57:40.577Z,14.15
2023-09-17T03:00:11.985Z,13.70
2023-09-17T03:02:41.873Z,14.30
2023-09-17T03:05:12.151Z,13.48
2023-09-17T03:07:42.600Z,12.93
2023-09-17T03:10:13.393Z,12.18
2023-09-17T03:12:43.077Z,11.77
2023-09-17T03:15:12.070Z,12.02
2023-09-17T03:17:40.852Z,11.32
2023-09-17T03:20:18.421Z,11.98
2023-09-17T03:22:48.554Z,11.45
2023-09-17T03:25:17.498Z,10.93
2023-09-17T03:27:46.797Z,11.93
2023-09-17T03:30:15.967Z,11.80
2023-09-17T03:35:16.294Z,11.63
2023-09-17T03:37:44.893Z,11.88
2023-09-17T03:40:16.039Z,11.55
2023-09-17T03:42:45.151Z,11.68
2023-09-17T03:45:14.651Z,12.13
2023-09-17T03:47:43.850Z,12.25
2023-09-17T03:50:14.973Z,11.73
2023-09-17T03:52:45.098Z,12.00
2023-09-17T03:55:15.389Z,13.00
2023-09-17T03:57:43.990Z,13.55
2023-09-17T04:00:13.813Z,12.63
2023-09-17T04:02:43.497Z,13.63
2023-09-17T04:05:13.846Z,12.02
2023-09-17T04:07:43.127Z,13.15
2023-09-17T04:10:12.379Z,12.93
2023-09-17T04:12:42.815Z,12.48
2023-09-17T04:15:14.790Z,12.52
2023-09-17T04:17:43.637Z,12.70
2023-09-17T04:20:15.471Z,12.90
2023-09-17T04:22:44.590Z,13.60
2023-09-17T04:25:14.382Z,14.55
2023-09-17T04:27:44.916Z,14.65
2023-09-17T04:30:14.824Z,15.50
2023-09-17T04:32:45.239Z,15.07
2023-09-17T04:35:17.271Z,15.68
2023-09-17T04:37:46.612Z,14.98
2023-09-17T04:40:15.298Z,15.25
2023-09-17T04:42:46.191Z,14.95
2023-09-17T04:45:15.260Z,14.77
2023-09-17T04:47:43.838Z,15.18
2023-09-17T04:50:13.929Z,16.17
2023-09-17T04:52:42.520Z,14.68
2023-09-17T04:55:11.290Z,14.40
2023-09-17T04:57:39.849Z,14.77
2023-09-17T05:00:12.380Z,15.40
2023-09-17T05:02:41.307Z,14.05
2023-09-17T05:05:11.467Z,14.68
2023-09-17T05:07:41.380Z,14.95
2023-09-17T05:10:10.529Z,15.48
2023-09-17T05:12:39.057Z,16.67
2023-09-17T05:15:07.886Z,15.07
2023-09-17T05:17:38.113Z,14.80
2023-09-17T05:20:08.115Z,16.45
2023-09-17T05:22:37.311Z,13.65
2023-09-17T05:25:08.041Z,14.38
2023-09-17T05:27:36.605Z,14.15
2023-09-17T05:30:05.383Z,15.98
2023-09-17T05:32:34.008Z,17.67
2023-09-17T05:35:04.667Z,17.80
2023-09-17T05:37:33.351Z,19.15
2023-09-17T05:40:01.973Z,18.85
2023-09-17T05:42:30.524Z,19.58
2023-09-17T05:44:59.214Z,19.33
2023-09-17T05:47:27.791Z,18.80
2023-09-17T05:49:59.028Z,20.13
2023-09-17T05:52:29.177Z,20.63
2023-09-17T05:54:57.784Z,20.50
2023-09-17T05:57:26.321Z,20.70
2023-09-17T05:59:54.902Z,21.38
2023-09-17T06:02:23.527Z,20.85
2023-09-17T06:04:54.456Z,21.27
2023-09-17T06:07:23.238Z,20.95
2023-09-17T06:09:53.158Z,20.63
2023-09-17T06:12:21.684Z,20.25
2023-09-17T06:14:50.644Z,18.95
2023-09-17T06:17:19.303Z,19.13
2023-09-17T06:19:47.892Z,19.38
2023-09-17T06:22:16.552Z,19.15
2023-09-17T06:24:45.090Z,19.17
2023-09-17T06:27:15.024Z,19.08
2023-09-17T06:29:43.584Z,18.67
2023-09-17T06:32:12.245Z,18.67
2023-09-17T06:34:40.965Z,18.73
2023-09-17T06:37:09.647Z,18.05
2023-09-17T06:39:38.188Z,17.42
2023-09-17T06:42:07.099Z,16.88
2023-09-17T06:44:37.078Z,16.60
2023-09-17T06:47:06.188Z,16.23
2023-09-17T06:49:35.489Z,15.93
2023-09-17T06:52:04.143Z,15.50
2023-09-17T06:54:32.681Z,15.98
2023-09-17T06:57:03.142Z,15.93
2023-09-17T06:59:31.816Z,16.58
2023-09-17T07:02:01.778Z,15.70
2023-09-17T07:04:30.514Z,15.25
2023-09-17T07:07:01.995Z,14.60
2023-09-17T07:09:30.860Z,15.35
2023-09-17T07:11:59.389Z,14.07
2023-09-17T07:14:27.998Z,14.10
2023-09-17T07:16:56.659Z,14.20
2023-09-17T07:19:28.524Z,13.98
2023-09-17T07:21:57.101Z,13.35
2023-09-17T07:24:25.643Z,13.30
2023-09-17T07:26:54.232Z,13.65
2023-09-17T07:29:22.840Z,12.73
2023-09-17T07:31:51.441Z,12.43
2023-09-17T07:34:20.024Z,12.90
2023-09-17T07:36:49.965Z,12.45
2023-09-17T07:39:18.511Z,12.77
2023-09-17T07:41:47.013Z,12.52
2023-09-17T07:44:15.550Z,12.48
2023-09-17T07:46:44.177Z,12.15
2023-09-17T07:49:12.732Z,12.43
2023-09-17T07:51:41.319Z,12.30
2023-09-17T07:54:11.207Z,11.95
2023-09-17T07:56:40.270Z,11.02
2023-09-17T07:59:08.815Z,10.77
2023-09-17T08:01:37.486Z,10.73
2023-09-17T08:04:06.222Z,10.60
2023-09-17T08:06:36.100Z,11.32
2023-09-17T08:09:07.405Z,11.35
2023-09-17T08:11:37.429Z,10.93
2023-09-17T08:14:06.024Z,10.90
2023-09-17T08:16:35.484Z,10.50
2023-09-17T08:19:04.162Z,10.93
2023-09-17T08:21:33.254Z,10.35
2023-09-17T08:24:02.091Z,10.20
2023-09-17T08:26:30.707Z,10.35
2023-09-17T08:29:01.541Z,9.98
2023-09-17T08:31:30.238Z,9.45
2023-09-17T08:33:58.896Z,9.55
2023-09-17T08:36:27.774Z,9.18
2023-09-17T08:38:56.329Z,9.18
2023-09-17T08:41:25.146Z,8.98
2023-09-17T08:43:54.992Z,8.73
2023-09-17T08:46:27.746Z,8.85
2023-09-17T08:48:56.867Z,8.32
2023-09-17T08:51:25.916Z,8.30
2023-09-17T08:54:04.903Z,9.10
2023-09-17T08:56:34.239Z,8.40
2023-09-17T08:59:04.556Z,7.93
2023-09-17T09:01:35.206Z,8.73
2023-09-17T09:04:04.320Z,9.50
2023-09-17T09:06:33.172Z,9.27
2023-09-17T09:09:01.928Z,8.32
2023-09-17T09:11:31.002Z,7.85
2023-09-17T09:14:00.028Z,7.50
2023-09-17T09:16:30.342Z,6.97
2023-09-17T09:19:00.485Z,7.07
2023-09-17T09:21:29.808Z,7.00
2023-09-17T09:23:59.621Z,6.78
2023-09-17T09:26:35.066Z,7.18
2023-09-17T09:29:05.498Z,6.70
2023-09-17T09:31:35.027Z,6.70
2023-09-17T09:34:05.384Z,6.78
2023-09-17T09:36:35.324Z,6.80
2023-09-17T09:39:04.227Z,7.32
2023-09-17T09:41:34.557Z,6.82
2023-09-17T09:44:04.813Z,6.82
2023-09-17T09:46:35.310Z,6.57
2023-09-17T09:49:06.112Z,6.78
2023-09-17T09:51:37.402Z,6.80
2023-09-17T09:54:06.725Z,6.35
2023-09-17T09:56:35.440Z,6.60
2023-09-17T09:59:04.609Z,6.20
2023-09-17T10:01:34.134Z,5.80
2023-09-17T10:04:06.450Z,5.85
2023-09-17T10:06:38.100Z,6.25
2023-09-17T10:09:07.675Z,5.72
2023-09-17T10:11:37.911Z,5.57
2023-09-17T10:14:07.234Z,5.97
2023-09-17T10:16:37.750Z,6.15
2023-09-17T10:19:06.812Z,5.85
2023-09-17T10:21:39.004Z,6.30
2023-09-17T10:24:08.332Z,6.13
2023-09-17T10:26:43.295Z,6.60
2023-09-17T10:29:12.567Z,5.57
2023-09-17T10:31:42.430Z,5.82
2023-09-17T10:34:12.157Z,5.60
2023-09-17T10:36:42.549Z,5.97
2023-09-17T10:39:12.115Z,5.80
2023-09-17T10:41:40.807Z,5.45
2023-09-17T10:44:10.073Z,5.70
2023-09-17T10:46:38.857Z,6.18
2023-09-17T10:49:08.903Z,6.13
2023-09-17T10:51:39.220Z,5.80
2023-09-17T10:54:09.261Z,5.82
2023-09-17T10:56:42.821Z,5.65
2023-09-17T10:59:13.528Z,5.28
2023-09-17T11:01:43.419Z,6.00
2023-09-17T11:04:14.752Z,5.60
2023-09-17T11:06:44.764Z,5.72
2023-09-17T11:09:14.815Z,5.35
2023-09-17T11:11:43.441Z,4.63
2023-09-17T11:14:15.386Z,5.20
2023-09-17T11:16:44.523Z,4.50
2023-09-17T11:19:14.593Z,5.32
2023-09-17T11:21:44.007Z,5.25
2023-09-17T11:24:14.776Z,4.93
2023-09-17T11:26:44.062Z,5.45
2023-09-17T11:29:12.974Z,5.18
2023-09-17T11:31:56.360Z,5.28
2023-09-17T11:34:24.985Z,4.80
2023-09-17T11:36:54.960Z,4.97
2023-09-17T11:39:24.919Z,4.63
2023-09-17T11:41:56.110Z,4.80
2023-09-17T11:44:25.431Z,4.82
2023-09-17T11:46:54.224Z,5.30
2023-09-17T11:49:23.652Z,4.90
2023-09-17T11:51:53.205Z,4.65
2023-09-17T11:54:23.864Z,5.00
2023-09-17T11:56:55.291Z,4.45
2023-09-17T11:59:24.369Z,4.90
2023-09-17T12:01:54.295Z,4.65
2023-09-17T12:04:25.357Z,4.90
2023-09-17T12:06:54.573Z,4.88
2023-09-17T12:09:29.753Z,4.43
2023-09-17T12:12:00.087Z,4.70
2023-09-17T12:14:28.956Z,4.45
2023-09-17T12:16:58.146Z,5.20
2023-09-17T12:19:27.116Z,5.00
2023-09-17T12:21:57.952Z,4.63
2023-09-17T12:24:30.185Z,4.90
2023-09-17T12:27:20.771Z,4.43
2023-09-17T12:29:49.462Z,4.45
2023-09-17T12:32:21.246Z,4.72
2023-09-17T12:34:51.192Z,4.80
2023-09-17T12:37:19.768Z,4.18
2023-09-17T12:39:48.388Z,4.30
2023-09-17T12:42:18.741Z,4.35
2023-09-17T12:44:47.534Z,4.45
2023-09-17T12:47:16.617Z,4.50
2023-09-17T12:49:45.809Z,4.80
2023-09-17T12:52:14.747Z,4.53
2023-09-17T12:54:43.496Z,4.88
2023-09-17T12:57:12.126Z,4.80
2023-09-17T12:59:43.140Z,5.07
2023-09-17T13:02:12.154Z,4.65
2023-09-17T13:04:41.896Z,5.28
2023-09-17T13:07:17.230Z,4.50
2023-09-17T13:09:46.099Z,4.60
2023-09-17T13:12:18.118Z,4.90
2023-09-17T13:14:49.142Z,5.22
2023-09-17T13:17:18.147Z,4.47
2023-09-17T13:19:46.941Z,4.00
2023-09-17T13:22:16.808Z,4.43
2023-09-17T13:24:46.426Z,4.03
2023-09-17T13:27:18.705Z,3.90
2023-09-17T13:29:51.704Z,3.65
2023-09-17T13:32:21.606Z,3.92
2023-09-17T13:34:50.777Z,3.58
2023-09-17T13:37:19.666Z,3.60
2023-09-17T13:39:50.999Z,3.70
2023-09-17T13:42:19.866Z,3.95
2023-09-17T13:44:48.519Z,4.15
2023-09-17T13:47:18.500Z,4.10
2023-09-17T13:49:47.068Z,4.25
2023-09-17T13:52:15.658Z,3.58
2023-09-17T13:54:45.132Z,3.90
2023-09-17T13:57:13.756Z,4.00
2023-09-17T13:59:42.311Z,3.80
2023-09-17T14:02:10.934Z,4.20
2023-09-17T14:04:41.579Z,3.85
2023-09-17T14:07:10.572Z,4.03
2023-09-17T14:09:39.261Z,3.72
2023-09-17T14:12:09.856Z,3.70
2023-09-17T14:14:38.429Z,4.43
2023-09-17T14:17:07.015Z,3.70
2023-09-17T14:19:35.880Z,3.40
2023-09-17T14:22:05.955Z,3.53
2023-09-17T14:24:34.906Z,3.80
2023-09-17T14:27:03.497Z,3.65
2023-09-17T14:29:32.065Z,3.30
2023-09-17T14:32:00.685Z,3.38
2023-09-17T14:34:29.265Z,3.20
2023-09-17T14:36:57.809Z,3.92
2023-09-17T14:39:27.739Z,3.55
2023-09-17T14:41:56.278Z,3.67
2023-09-17T14:44:24.809Z,3.65
2023-09-17T14:46:55.934Z,3.70
2023-09-17T14:49:24.579Z,3.40
2023-09-17T14:51:53.133Z,3.33
2023-09-17T14:54:21.736Z,3.53
2023-09-17T14:56:51.653Z,3.47
2023-09-17T14:59:20.263Z,3.60
2023-09-17T15:01:59.843Z,3.70
2023-09-17T15:04:29.454Z,3.42
2023-09-17T15:06:58.139Z,3.40
2023-09-17T15:09:27.174Z,4.10
2023-09-17T15:11:57.319Z,4.40
2023-09-17T15:14:25.962Z,4.40
2023-09-17T15:16:54.598Z,4.00
2023-09-17T15:19:24.019Z,3.95
2023-09-17T15:21:52.571Z,4.20
2023-09-17T15:24:21.091Z,3.55
2023-09-17T15:26:49.670Z,3.17
2023-09-17T15:29:19.675Z,3.50
2023-09-17T15:31:49.335Z,3.65
2023-09-17T15:34:18.423Z,3.38
2023-09-17T15:36:47.445Z,3.92
2023-09-17T15:39:16.002Z,3.67
2023-09-17T15:41:44.539Z,3.45
2023-09-17T15:44:15.966Z,3.55
2023-09-17T15:46:46.842Z,3.13
2023-09-17T15:49:15.551Z,3.35
2023-09-17T15:51:44.080Z,3.60
2023-09-17T15:54:12.622Z,3.25
2023-09-17T15:56:42.345Z,3.33
2023-09-17T15:59:11.510Z,3.33
2023-09-17T16:01:41.853Z,3.17
2023-09-17T16:04:12.195Z,3.30
2023-09-17T16:06:40.968Z,3.63
2023-09-17T16:09:08.513Z,3.50
2023-09-17T16:11:37.074Z,3.40
2023-09-17T16:14:06.023Z,3.45
2023-09-17T16:16:34.674Z,3.47
2023-09-17T16:19:03.333Z,4.30
2023-09-17T16:21:33.435Z,5.28
2023-09-17T16:24:01.985Z,6.40
2023-09-17T16:26:32.284Z,7.25
2023-09-17T16:29:02.189Z,6.50
2023-09-17T16:31:30.762Z,5.50
2023-09-17T16:33:59.364Z,5.00
2023-09-17T16:36:27.921Z,5.10
2023-09-17T16:38:58.545Z,5.10
2023-09-17T16:41:27.135Z,4.57
2023-09-17T16:43:55.867Z,6.32
2023-09-17T16:46:24.627Z,6.45
2023-09-17T16:48:53.214Z,6.80
2023-09-17T16:51:21.786Z,5.53
2023-09-17T16:53:50.608Z,5.70
2023-09-17T16:56:20.795Z,5.55
2023-09-17T16:58:49.592Z,5.30
2023-09-17T17:01:18.773Z,5.55
2023-09-17T17:03:47.487Z,5.57
2023-09-17T17:06:16.402Z,5.07
2023-09-17T17:08:44.982Z,5.18
2023-09-17T17:11:13.609Z,5.03
2023-09-17T17:13:43.622Z,5.28
2023-09-17T17:16:12.295Z,5.63
2023-09-17T17:18:40.944Z,5.65
2023-09-17T17:21:09.538Z,5.53
2023-09-17T17:23:38.260Z,5.60
2023-09-17T17:26:08.209Z,6.07
2023-09-17T17:28:36.814Z,6.20
2023-09-17T17:31:07.667Z,6.65
2023-09-17T17:33:36.290Z,6.10
2023-09-17T17:36:04.882Z,6.18
2023-09-17T17:38:34.059Z,6.10
2023-09-17T17:41:02.910Z,5.50
2023-09-17T17:43:32.866Z,6.15
2023-09-17T17:46:01.467Z,6.03
2023-09-17T17:48:31.590Z,5.47
2023-09-17T17:51:00.179Z,5.75
2023-09-17T17:53:28.753Z,5.82
2023-09-17T17:55:57.397Z,6.53
2023-09-17T17:58:26.273Z,6.32
2023-09-17T18:00:54.932Z,6.07
2023-09-17T18:03:24.342Z,5.82
2023-09-17T18:05:55.311Z,6.38
2023-09-17T18:08:23.957Z,5.82
2023-09-17T18:10:52.574Z,6.22
2023-09-17T18:13:21.250Z,6.10
2023-09-17T18:15:49.920Z,6.00
2023-09-17T18:18:19.531Z,5.93
2023-09-17T18:20:48.311Z,5.57
2023-09-17T18:23:18.261Z,6.28
2023-09-17T18:25:46.902Z,6.15
2023-09-17T18:28:15.456Z,5.60
2023-09-17T18:30:44.107Z,5.65
2023-09-17T18:33:12.829Z,5.63
2023-09-17T18:35:41.404Z,5.72
2023-09-17T18:38:09.992Z,5.32
2023-09-17T18:40:40.953Z,5.70
2023-09-17T18:43:09.479Z,5.80
2023-09-17T18:45:38.143Z,5.82
2023-09-17T18:48:07.048Z,5.57
2023-09-17T18:50:35.733Z,5.47
2023-09-17T18:53:04.297Z,5.35
2023-09-17T18:55:32.885Z,5.55
2023-09-17T18:58:02.994Z,5.10
2023-09-17T19:00:31.622Z,5.40
2023-09-17T19:03:00.308Z,5.70
2023-09-17T19:05:28.948Z,5.93
2023-09-17T19:07:57.590Z,5.78
2023-09-17T19:10:26.194Z,6.03
2023-09-17T19:12:56.759Z,5.43
2023-09-17T19:15:27.083Z,5.47
2023-09-17T19:17:55.665Z,5.50
2023-09-17T19:20:24.286Z,6.05
2023-09-17T19:22:52.901Z,5.63
2023-09-17T19:25:21.505Z,5.60
2023-09-17T19:27:50.047Z,5.40
2023-09-17T19:30:18.630Z,5.80
2023-09-17T19:32:48.685Z,6.00
2023-09-17T19:35:17.337Z,6.43
2023-09-17T19:37:45.926Z,5.90
2023-09-17T19:40:14.606Z,5.20
2023-09-17T19:42:43.538Z,5.90
2023-09-17T19:45:12.417Z,5.95
2023-09-17T19:47:41.103Z,5.88
2023-09-17T19:50:11.848Z,5.43
2023-09-17T19:52:40.418Z,5.75
2023-09-17T19:55:09.294Z,6.03
2023-09-17T19:57:38.059Z,6.05
2023-09-17T20:00:07.664Z,5.75
2023-09-17T20:02:38.166Z,6.28
2023-09-17T20:05:07.205Z,6.30
2023-09-17T20:07:38.269Z,6.30
2023-09-17T20:10:14.877Z,6.65
2023-09-17T20:12:43.613Z,6.95
2023-09-17T20:15:12.456Z,6.43
2023-09-17T20:17:41.114Z,6.70
2023-09-17T20:20:10.292Z,6.88
2023-09-17T20:22:44.925Z,6.78
2023-09-17T20:25:15.584Z,7.10
2023-09-17T20:27:44.364Z,7.38
2023-09-17T20:30:13.284Z,7.10
2023-09-17T20:32:42.063Z,7.00
2023-09-17T20:35:11.162Z,7.32
2023-09-17T20:37:39.849Z,7.70
2023-09-17T20:40:10.671Z,7.00
2023-09-17T20:42:39.287Z,8.02
2023-09-17T20:45:08.510Z,8.00
2023-09-17T20:47:39.146Z,7.82
2023-09-17T20:50:10.949Z,8.80
2023-09-17T20:52:40.039Z,8.07
2023-09-17T20:55:10.900Z,8.25
2023-09-17T20:57:39.461Z,8.43
2023-09-17T21:00:09.153Z,8.27
2023-09-17T21:02:37.833Z,7.65
2023-09-17T21:05:06.864Z,7.72
2023-09-17T21:07:35.420Z,7.68
2023-09-17T21:10:04.207Z,7.97
2023-09-17T21:12:35.025Z,8.13
2023-09-17T21:15:03.621Z,7.97
2023-09-17T21:17:32.258Z,7.85
2023-09-17T21:20:01.192Z,7.75
2023-09-17T21:22:29.808Z,8.13
2023-09-17T21:24:58.335Z,8.13
2023-09-17T21:27:29.570Z,7.90
2023-09-17T21:29:59.556Z,7.30
2023-09-17T21:32:28.237Z,7.78
2023-09-17T21:34:56.881Z,7.82
2023-09-17T21:37:25.564Z,7.25
2023-09-17T21:39:54.380Z,7.80
2023-09-17T21:42:22.943Z,7.82
2023-09-17T21:44:51.522Z,8.45
2023-09-17T21:47:21.495Z,8.10
2023-09-17T21:49:50.114Z,8.23
2023-09-17T21:52:18.834Z,7.93
2023-09-17T21:54:47.651Z,7.45
2023-09-17T21:57:19.457Z,8.05
2023-09-17T21:59:48.269Z,7.10
2023-09-17T22:02:17.111Z,7.50
2023-09-17T22:04:47.133Z,7.80
2023-09-17T22:07:15.689Z,7.63
2023-09-17T22:09:44.232Z,7.90
2023-09-17T22:12:12.913Z,8.00
2023-09-17T22:14:41.510Z,7.35
2023-09-17T22:17:11.997Z,7.72
2023-09-17T22:19:42.432Z,8.70
2023-09-17T22:22:12.476Z,8.25
2023-09-17T22:24:41.099Z,7.82
2023-09-17T22:27:09.657Z,8.35
2023-09-17T22:29:38.198Z,7.68
2023-09-17T22:32:06.892Z,7.65
2023-09-17T22:34:35.584Z,7.65
2023-09-17T22:37:04.549Z,7.28
2023-09-17T22:39:34.458Z,7.53
2023-09-17T22:42:03.043Z,7.65
2023-09-17T22:44:31.642Z,7.32
2023-09-17T22:47:00.229Z,7.20
2023-09-17T22:49:30.249Z,7.25
2023-09-17T22:51:58.819Z,7.40
2023-09-17T22:54:27.356Z,7.05
2023-09-17T22:56:57.357Z,7.25
2023-09-17T22:59:25.942Z,7.22
2023-09-17T23:01:54.629Z,7.30
2023-09-17T23:04:23.257Z,7.55
2023-09-17T23:06:51.803Z,7.78
2023-09-17T23:09:20.341Z,8.48
2023-09-17T23:11:48.933Z,9.23
2023-09-17T23:14:18.931Z,9.65
2023-09-17T23:16:47.819Z,9.32
2023-09-17T23:19:17.037Z,9.30
2023-09-17T23:21:45.922Z,9.43
2023-09-17T23:24:15.405Z,8.93
2023-09-17T23:26:44.051Z,8.55
2023-09-17T23:29:12.583Z,9.18
2023-09-17T23:31:42.593Z,9.15
2023-09-17T23:34:11.192Z,8.45
2023-09-17T23:36:40.500Z,8.38
2023-09-17T23:39:11.549Z,8.85
2023-09-17T23:41:40.316Z,9.95
2023-09-17T23:44:09.016Z,9.82
2023-09-17T23:46:38.572Z,10.07
2023-09-17T23:49:08.585Z,10.13
2023-09-17T23:51:37.792Z,10.55
2023-09-17T23:54:06.592Z,10.65
2023-09-17T23:56:35.253Z,10.82
2023-09-17T23:59:03.892Z,11.50
